Latest Coastal Weather Observations for Cairns

IDQ60701

Issued at 9:42 am EST Sunday 26 March 2017 (issued every 10 minutes, with the page automatically refreshed every 10 minutes)

About coastal observations | Map of coastal stations | Coastal observations for QLD | Marine services | Other Formats
Station Details ID: 031011 Name: CAIRNS AERO Lat: -16.87 Lon: 145.75 Height: 2.22 m
Data from the previous 72 hours. | See also: Recent months at Cairns
Date/Time
EST
Temp
°C
Wind Pressure Rain since
9am
mm
Weather Cloud Vis
km
Sea
Height
m
Swell
Dir  Spd
kts
Gust
kts
hPa Trend Height
m
Period
s
Dir
26/09:30am 30.0 W 3 5 1009.6 - 0.0 - Mostly clear 10 - - - -
26/09:00am 28.9 WSW 5 7 1009.6 F 0.0 - - 10 - - - -
26/08:30am 27.8 W 6 7 1009.6 - 0.0 - - 10 - - - -
26/08:00am 26.4 W 6 7 1009.4 - 0.0 - Mostly clear 10 - - - -
26/07:30am 25.6 W 7 9 1009.1 - 0.0 - Mostly clear 10 - - - -
26/07:00am 24.8 W 6 7 1008.8 - 0.0 - Mostly clear 10 - - - -
26/06:30am 24.6 W 7 9 1008.4 - 0.0 - Mostly clear 10 - - - -
26/06:00am 24.7 W 6 7 1008.1 F 0.0 - Mostly clear 10 - - - -
26/05:30am 23.9 CALM 0 0 1007.8 - 0.0 - Mostly clear 10 - - - -
26/05:00am 24.6 SE 4 6 1007.8 - 0.0 - Mostly clear 10 - - - -
26/04:30am 24.3 NW 5 6 1007.6 - 0.0 - Mostly clear 10 - - - -
26/04:00am 24.6 W 5 7 1007.7 - 0.0 - Mostly clear 10 - - - -
26/03:30am 24.3 SE 1 4 1007.9 - 0.0 - Mostly clear 10 - - - -
26/03:00am 24.6 SW 3 5 1007.8 R 0.0 - Mostly clear 10 - - - -
26/02:30am 24.8 W 5 7 1008.0 - 0.0 - Mostly clear 10 - - - -
26/02:00am 24.9 CALM 0 0 1008.2 - 0.0 - Mostly clear 10 - - - -
26/01:30am 24.8 SE 4 6 1008.2 - 0.0 - Mostly clear 10 - - - -
26/01:00am 24.5 CALM 0 0 1008.5 - 0.0 - Mostly clear 10 - - - -
26/12:30am 24.7 S 2 4 1009.1 - 0.0 - Mostly clear 10 - - - -
26/12:00am 24.8 NW 3 5 1009.3 F 0.0 - Mostly clear 10 - - - -
 
Date/Time
EST
Temp
°C
Wind Pressure Rain since
9am
mm
Weather Cloud Vis
km
Sea
Height
m
Swell
Dir  Spd
kts
Gust
kts
hPa Trend Height
m
Period
s
Dir
25/11:30pm 24.9 WNW 2 4 1009.5 - 0.0 - Mostly clear 10 - - - -
25/11:00pm 24.8 N 4 5 1009.7 - 0.0 - Mostly clear 10 - - - -
25/10:30pm 27.2 SSE 3 5 1009.6 - 0.0 - Mostly clear 10 - - - -
25/10:00pm 27.4 SW 4 8 1009.7 - 0.0 - Mostly clear 10 - - - -
25/09:30pm 27.2 S 3 5 1009.6 - 0.0 - Mostly clear 10 - - - -
25/09:00pm 27.8 SW 3 5 1009.4 R 0.0 - Mostly clear 10 - - - -
25/08:30pm 27.2 SSE 7 9 1009.0 - 0.0 - Mostly clear 10 - - - -
25/08:00pm 27.9 S 8 11 1008.8 - 0.0 - Mostly clear 10 - - - -
25/07:30pm 28.4 SSE 11 16 1008.5 - 0.0 - Mostly clear 10 - - - -
25/07:00pm 28.6 SSE 11 16 1008.2 - 0.0 - Mostly clear 10 - - - -
25/06:30pm 29.3 SSE 12 16 1007.7 - 0.0 - Mostly clear 10 - - - -
25/06:00pm 29.4 SE 15 18 1007.0 R 0.0 - Mostly clear 10 - - - -
25/05:30pm 30.2 SE 16 20 1006.8 - 0.0 - Mostly clear 10 - - - -
25/05:00pm 30.7 SE 17 21 1006.6 - 0.0 - Mostly clear 10 - - - -
25/04:30pm 31.4 SE 16 22 1006.4 - 0.0 - Mostly clear 10 - - - -
25/04:00pm 32.3 ESE 16 19 1006.2 - 0.0 - Mostly clear 10 - - - -
25/03:30pm 32.1 ESE 14 18 1006.1 - 0.0 - Mostly clear 10 - - - -
25/03:00pm 32.4 ESE 14 20 1006.1 F 0.0 - Mostly clear 10 - - - -
25/02:30pm 32.2 SE 15 18 1006.4 - 0.0 - Mostly clear 10 - - - -
25/02:00pm 32.7 ESE 13 17 1006.7 - 0.0 - Mostly clear 10 - - - -
25/01:30pm 32.8 ESE 11 15 1007.1 - 0.0 - Mostly clear 10 - - - -
25/01:00pm 32.9 SSE 9 14 1007.3 - 0.0 - Mostly clear 10 - - - -
25/12:30pm 32.2 SSE 9 13 1007.8 - 0.0 - Mostly clear 10 - - - -
25/12:00pm 32.1 SSE 10 14 1008.4 F 0.0 - Mostly clear 10 - - - -
25/11:30am 30.8 SE 12 16 1008.9 - 0.0 - Partly cloudy 10 - - - -
25/11:00am 31.2 SSE 10 15 1009.3 - 0.0 - Partly cloudy 10 - - - -
25/10:30am 29.9 SSE 10 15 1009.9 - 0.0 - Partly cloudy 10 - - - -
25/10:00am 30.1 SSE 10 15 1009.8 - 0.0 - Mostly clear 10 - - - -
25/09:30am 29.4 SSW 6 10 1009.7 - 0.0 - Mostly clear 10 - - - -
25/09:00am 27.9 S 6 8 1009.6 R 16.8 - Cloudy 10 - - - -
25/08:30am 28.0 SSE 7 12 1009.2 - 16.8 - Mostly clear 10 - - - -
25/08:00am 27.3 S 6 10 1008.7 - 16.8 - Mostly clear 10 - - - -
25/07:30am 26.1 SSE 7 10 1008.3 - 16.8 - Mostly clear 10 - - - -
25/07:00am 24.5 SE 9 11 1007.9 - 16.8 - Mostly clear 10 - - - -
25/06:30am 25.6 SSE 8 13 1007.5 - 16.8 - Mostly clear 10 - - - -
25/06:00am 24.4 SE 9 13 1007.4 F 16.8 - Mostly clear 10 - - - -
25/05:30am 24.2 SE 9 10 1007.3 - 16.8 - Mostly clear 10 - - - -
25/05:00am 24.6 S 5 9 1007.0 - 16.8 - Mostly clear 10 - - - -
25/04:30am 24.7 SE 7 10 1007.4 - 16.8 - Mostly clear 10 - - - -
25/04:00am 24.6 SSE 5 6 1007.5 - 16.8 - Mostly clear 10 - - - -
25/03:30am 24.1 CALM 0 0 1007.8 - 16.6 - Mostly clear 10 - - - -
25/03:00am 24.3 CALM 0 3 1008.1 S 16.6 Rain Mostly clear 10 - - - -
25/02:30am 24.6 CALM 0 0 1008.3 - 16.6 - Mostly clear 10 - - - -
25/02:00am 24.5 WSW 1 3 1008.6 - 16.6 - Mostly clear 10 - - - -
25/01:30am 24.5 CALM 0 0 1009.0 - 16.6 - Mostly clear 10 - - - -
25/01:00am 24.4 CALM 0 0 1009.3 - 16.6 - Mostly clear 10 - - - -
25/12:30am 24.4 CALM 0 0 1009.8 - 16.6 - Mostly clear 10 - - - -
25/12:00am 24.4 SSW 2 5 1009.8 S 16.6 Rain Mostly clear 10 - - - -
 
Date/Time
EST
Temp
°C
Wind Pressure Rain since
9am
mm
Weather Cloud Vis
km
Sea
Height
m
Swell
Dir  Spd
kts
Gust
kts
hPa Trend Height
m
Period
s
Dir
24/11:30pm 24.4 W 5 6 1010.0 - 16.6 - Mostly clear 10 - - - -
24/11:00pm 24.7 S 3 5 1010.5 - 16.6 - Mostly clear 10 - - - -
24/10:30pm 24.7 SE 5 6 1010.6 - 16.4 - Mostly clear 10 - - - -
24/10:00pm 24.8 SE 6 7 1010.4 - 16.4 - Mostly clear 10 - - - -
24/09:30pm 24.6 CALM 0 0 1010.0 - 16.4 - Mostly clear 10 - - - -
24/09:00pm 24.7 CALM 0 0 1009.7 F 16.4 Showers Partly cloudy 10 - - - -
24/08:30pm 24.8 S 6 10 1009.9 - 14.8 Showers Mostly clear 8 - - - -
24/08:26pm 24.9 S 5 10 1009.9 - 14.4 Showers Mostly clear 8 - - - -
24/08:00pm 25.0 S 6 8 1009.8 - 14.0 - Mostly clear 10 - - - -
24/07:30pm 25.3 SSW 5 10 1009.6 - 13.8 Showers Mostly clear 10 - - - -
24/07:26pm 25.3 SSW 5 9 1009.6 - 13.8 Showers Mostly clear 10 - - - -
24/07:00pm 24.9 SSE 7 9 1009.3 - 13.2 - Mostly clear 6 - - - -
24/06:48pm 24.9 SSE 8 11 1009.1 - 12.6 Showers Mostly clear 6 - - - -
24/06:30pm 25.4 ESE 12 17 1008.9 - 8.4 Showers Mostly clear 4 - - - -
24/06:17pm 25.7 ESE 8 13 1008.7 - 4.8 Showers Mostly clear 5 - - - -
24/06:08pm 25.6 ESE 10 12 1008.4 - 4.6 Showers Mostly clear 5 - - - -
24/06:00pm 25.5 SE 13 17 1008.3 R 3.0 Rain Cloudy 2 - - - -
24/05:58pm 25.7 SE 14 17 1008.3 - 2.4 Showers Mostly clear 3 - - - -
24/05:46pm 27.3 ESE 11 17 1007.9 - 0.4 Showers Mostly clear 4 - - - -
24/05:30pm 28.9 E 7 9 1007.7 - 0.4 - Partly cloudy 10 - - - -
24/05:00pm 29.2 ESE 6 8 1007.3 - 0.4 - Mostly clear 10 - - - -
24/04:30pm 29.4 ESE 7 14 1007.0 - 0.4 - Mostly clear 10 - - - -
24/04:00pm 29.0 SSW 3 7 1006.9 - 0.4 - Mostly clear 10 - - - -
24/03:30pm 29.6 SSE 5 9 1006.9 - 0.4 Showers Mostly clear 10 - - - -
24/03:00pm 29.4 S 6 9 1006.9 R 0.4 - Mostly cloudy 10 - - - -
24/02:30pm 29.4 S 7 11 1007.0 - 0.4 - Partly cloudy 10 - - - -
24/02:00pm 29.4 SE 13 17 1007.3 - 0.4 - Mostly clear 10 - - - -
24/01:30pm 30.7 SE 10 14 1007.3 - 0.4 - Mostly clear 10 - - - -
24/01:00pm 30.2 SSE 6 9 1007.9 - 0.4 - Mostly clear 10 - - - -
24/12:30pm 29.5 S 5 8 1008.3 - 0.2 - Mostly clear 10 - - - -
24/12:00pm 29.3 SSE 8 11 1008.8 F 0.2 - Mostly clear 10 - - - -
24/11:30am 29.1 SE 9 14 1009.4 - 0.2 - Mostly clear 10 - - - -
24/11:00am 28.3 ESE 4 7 1009.5 - 0.2 - Mostly clear 10 - - - -
24/10:30am 28.7 S 4 6 1009.8 - 0.0 Showers Mostly clear 10 - - - -
24/10:00am 28.3 S 5 7 1009.7 - 0.0 - Mostly clear 10 - - - -
24/09:30am 28.0 SSE 5 7 1009.9 - 0.0 - Mostly clear 10 - - - -
24/09:00am 27.9 SSE 9 11 1009.7 S 0.0 - Mostly clear 10 - - - -
24/08:30am 28.6 SSE 7 9 1009.4 - 0.0 - Mostly clear 10 - - - -
24/08:00am 27.9 SE 9 10 1009.1 - 0.0 - Mostly clear 10 - - - -
24/07:30am 27.0 SSE 4 7 1009.2 - 0.0 - Mostly clear 10 - - - -
24/07:00am 25.9 SE 8 9 1008.8 - 0.0 - Mostly clear 10 - - - -
24/06:30am 25.4 WSW 1 4 1008.7 - 0.0 - Mostly clear 10 - - - -
24/06:00am 25.6 WSW 5 8 1008.1 F 0.0 - Mostly clear 10 - - - -
24/05:30am 25.2 CALM 0 0 1007.6 - 0.0 - Mostly clear 10 - - - -
24/05:00am 25.6 W 4 5 1007.6 - 0.0 - Mostly clear 10 - - - -
24/04:30am 26.1 SSW 7 11 1007.7 - 0.0 - Mostly clear 10 - - - -
24/04:00am 25.9 S 10 15 1007.8 - 0.0 - Mostly clear 10 - - - -
24/03:30am 25.9 SSE 9 13 1008.0 - 0.0 - Mostly clear 10 - - - -
24/03:00am 25.5 SE 9 10 1008.3 R 0.0 - Mostly clear 10 - - - -
24/02:30am 25.6 SSE 9 12 1008.2 - 0.0 - Mostly clear 10 - - - -
24/02:00am 25.7 N 1 5 1008.4 - 0.0 - Mostly clear 10 - - - -
24/01:30am 26.2 SSE 5 8 1008.8 - 0.0 - Mostly clear 10 - - - -
24/01:00am 26.5 SSE 6 9 1009.2 - 0.0 - Mostly clear 10 - - - -
24/12:30am 26.5 SSE 5 8 1008.9 - 0.0 - Mostly clear 10 - - - -
24/12:00am 26.8 SSE 7 13 1009.5 F 0.0 - Mostly clear 10 - - - -
 
Date/Time
EST
Temp
°C
Wind Pressure Rain since
9am
mm
Weather Cloud Vis
km
Sea
Height
m
Swell
Dir  Spd
kts
Gust
kts
hPa Trend Height
m
Period
s
Dir
23/11:30pm 26.4 SSW 2 7 1009.4 - 0.0 - Mostly clear 10 - - - -
23/11:00pm 27.4 SSE 3 6 1009.5 - 0.0 - Mostly clear 10 - - - -
23/10:30pm 27.0 SSE 5 6 1009.8 - 0.0 - Mostly clear 10 - - - -
23/10:00pm 27.0 SSE 5 6 1009.9 - 0.0 - Mostly clear 10 - - - -
23/09:30pm 27.2 SE 5 7 1009.9 - 0.0 - Mostly clear 10 - - - -
23/09:00pm 27.8 S 5 11 1009.5 F 0.0 - Mostly clear 10 - - - -
23/08:30pm 27.8 S 5 8 1009.2 - 0.0 - Mostly clear 10 - - - -
23/08:00pm 28.1 SSW 5 7 1009.2 - 0.0 - Mostly clear 10 - - - -
23/07:30pm 28.3 S 6 8 1009.1 - 0.0 - Mostly clear 10 - - - -
23/07:00pm 28.1 SSE 7 8 1008.7 - 0.0 - Partly cloudy 10 - - - -
23/06:30pm 28.2 SSE 6 8 1008.3 - 0.0 - Partly cloudy 10 - - - -
23/06:00pm 28.7 E 2 9 1008.1 R 0.0 - Partly cloudy 10 - - - -
23/05:30pm 29.2 SSW 3 7 1007.6 - 0.0 - Mostly clear 10 - - - -
23/05:00pm 29.5 S 5 8 1007.2 - 0.0 - Partly cloudy 10 - - - -
23/04:30pm 29.6 SSE 6 9 1007.1 - 0.0 - Mostly clear 10 - - - -
23/04:00pm 30.5 SSE 6 8 1006.5 - 0.0 - Mostly clear 10 - - - -
23/03:30pm 31.7 E 11 15 1006.6 - 0.0 Thunder Mostly clear 10 - - - -
23/03:00pm 31.9 NE 9 12 1006.9 R 0.0 - Mostly clear 10 - - - -
23/02:30pm 31.5 NNE 8 10 1006.6 - 0.0 - Mostly clear 10 - - - -
23/02:00pm 31.2 NE 10 14 1007.0 - 0.0 - Mostly clear 10 - - - -
23/01:30pm 31.5 NE 11 15 1007.5 - 0.0 - Mostly clear 10 - - - -
23/01:00pm 31.3 NE 9 12 1007.8 - 0.0 - Mostly clear 10 - - - -
23/12:30pm 32.3 NE 8 12 1008.2 - 0.0 - Mostly clear 10 - - - -
23/12:00pm 31.4 ENE 8 9 1008.7 F 0.0 - Mostly clear 10 - - - -
23/11:30am 30.7 NE 6 9 1009.3 - 0.0 - Mostly clear 10 - - - -
23/11:00am 31.2 NNW 5 6 1009.9 - 0.0 - Mostly clear 10 - - - -
23/10:30am 30.6 W 4 7 1010.1 - 0.0 - Mostly clear 10 - - - -
23/10:00am 29.8 W 4 6 1010.2 - 0.0 - Mostly clear 10 - - - -

Other Formats:

Comma delimited format used in spreadsheet applications
http://www.bom.gov.au/fwo/IDQ60701/IDQ60701.94287.axf

JavaScript Object Notation format (JSON) in row-major order
http://www.bom.gov.au/fwo/IDQ60701/IDQ60701.94287.json